Flight Track Log - Related Links

Times and Time Zones

All times are in EDT time to prevent confusion due to time zone crossing. See the FSR411 flight status page for this flight to view local times or setup timezone preferences in your user account.

Time Position Orientation Groundspeed Altitude Reporting Facility
EDT Latitude Longitude Course Direction KTS MPH feet Rate Location/Type
Thu 03:19:46 PM 34.7853 -96.6022 45° Northeast 221 254 5,600  Level Kansas City Center
Thu 03:20:10 PM 34.8069 -96.5764 44° Northeast 387 445 6,700 2,929 Climbing Fort Worth Center
Thu 03:21:10 PM 34.8400 -96.5206 54° Northeast 295 339 9,700 2,800 Climbing Fort Worth Center
Thu 03:22:10 PM 34.8706 -96.4292 68° East 276 318 12,300 2,800 Climbing Fort Worth Center
Thu 03:23:10 PM 34.9050 -96.3197 69° East 305 351 15,300 3,050 Climbing Fort Worth Center
Thu 03:24:10 PM 34.9414 -96.1978 70° East 348 400 18,400 2,700 Climbing Fort Worth Center
Thu 03:25:00 PM 35.2725 -96.0595 45° Northeast  Level FlightAware Approximate
Thu 03:25:10 PM 34.9800 -96.0731 69° East 372 428 20,700  Level Fort Worth Center
Thu 03:26:10 PM 35.0475 -95.9656 52° Northeast 389 448 22,600 2,250 Climbing Fort Worth Center
Thu 03:27:10 PM 35.1214 -95.8575 50° Northeast 400 460 25,200 1,172 Climbing Fort Worth Center
Thu 03:29:04 PM 35.2744 -95.6142 52° Northeast 468 539 26,000 1,023 Climbing Kansas City Center
Thu 03:30:06 PM 35.3547 -95.4872 52° Northeast 474 545 28,200 2,032 Climbing Kansas City Center
Thu 03:31:08 PM 35.4333 -95.3642 52° Northeast 465 535 30,200 1,918 Climbing Kansas City Center
Thu 03:32:08 PM 35.5100 -95.2489 51° Northeast 459 528 32,100 1,950 Climbing Memphis Center
Thu 03:33:08 PM 35.5836 -95.1306 53° Northeast 446 513 34,100 1,850 Climbing Memphis Center
Thu 03:34:08 PM 35.6567 -95.0172 52° Northeast 435 501 35,800 1,350 Climbing Memphis Center
Thu 03:35:08 PM 35.7256 -94.9011 54° Northeast 425 489 36,800 900 Climbing Memphis Center
Thu 03:36:08 PM 35.7986 -94.7847 52° Northeast 425 489 37,600 800 Climbing Memphis Center
Thu 03:37:08 PM 35.8717 -94.6658 53° Northeast 425 489 38,400 800 Climbing Memphis Center
Thu 03:38:08 PM 35.9467 -94.5439 53° Northeast 425 489 39,200 950 Climbing Memphis Center
Thu 03:39:08 PM 36.0214 -94.4247 52° Northeast 430 495 40,300 900 Climbing Memphis Center
Thu 03:40:08 PM 36.0919 -94.3075 53° Northeast 430 495 41,000 350 Climbing Memphis Center
Thu 03:41:08 PM 36.1644 -94.1850 54° Northeast 430 495 41,000  Level Memphis Center
Thu 03:42:08 PM 36.2433 -94.0600 52° Northeast 442 509 41,000  Level Memphis Center
Thu 03:43:08 PM 36.3181 -93.9319 54° Northeast 448 516 41,000  Level Memphis Center
Thu 03:44:08 PM 36.3967 -93.8039 53° Northeast 453 521 41,000  Level Memphis Center
Thu 03:45:08 PM 36.4731 -93.6731 54° Northeast 453 521 41,000  Level Memphis Center
Thu 03:46:39 PM 36.5992 -93.4717 52° Northeast 466 536 41,000  Level Kansas City Center
Thu 03:47:41 PM 36.6756 -93.3431 53° Northeast 463 533 41,000  Level Kansas City Center
Thu 03:48:43 PM 36.7517 -93.2147 53° Northeast 462 532 41,000  Level Kansas City Center
Thu 03:49:45 PM 36.8383 -93.0692 53° Northeast 463 533 41,000  Level Kansas City Center
Thu 03:50:47 PM 36.9142 -92.9408 54° Northeast 460 529 41,000  Level Kansas City Center
Thu 03:51:49 PM 36.9900 -92.8125 53° Northeast 460 529 41,000  Level Kansas City Center
Thu 03:52:51 PM 37.0664 -92.6825 54° Northeast 462 532 41,000  Level Kansas City Center
Thu 03:53:53 PM 37.1414 -92.5531 54° Northeast 461 531 41,000  Level Kansas City Center
Thu 03:54:55 PM 37.2322 -92.3964 54° Northeast 463 533 41,000  Level Kansas City Center
Thu 03:55:57 PM 37.3075 -92.2656 54° Northeast 463 533 41,000  Level Kansas City Center
Thu 03:56:59 PM 37.3831 -92.1342 54° Northeast 465 535 41,000  Level Kansas City Center
Thu 03:58:02 PM 37.4567 -92.0058 54° Northeast 460 529 41,000  Level Kansas City Center
Thu 03:59:04 PM 37.5303 -91.8767 54° Northeast 458 527 41,000  Level Kansas City Center
Thu 04:00:06 PM 37.6019 -91.7517 54° Northeast 452 520 41,000  Level Kansas City Center
Thu 04:01:08 PM 37.6883 -91.6000 54° Northeast 447 514 41,000  Level Kansas City Center
Thu 04:02:10 PM 37.7583 -91.4747 55° Northeast 442 509 41,000  Level Kansas City Center
Thu 04:03:12 PM 37.8314 -91.3464 54° Northeast 445 512 41,000  Level Kansas City Center
Thu 04:04:14 PM 37.9017 -91.2208 55° Northeast 442 509 41,000  Level Kansas City Center
Thu 04:05:16 PM 37.9711 -91.0953 55° Northeast 438 504 41,000  Level Kansas City Center
Thu 04:06:18 PM 38.0436 -90.9678 54° Northeast 440 506 41,000  Level Kansas City Center
Thu 04:07:20 PM 38.1272 -90.8156 55° Northeast 440 506 41,000  Level Kansas City Center
Thu 04:08:22 PM 38.1967 -90.6878 55° Northeast 441 507 41,000  Level Kansas City Center
Thu 04:09:24 PM 38.2669 -90.5589 55° Northeast 443 510 41,000  Level Kansas City Center
Thu 04:10:26 PM 38.3378 -90.4289 55° Northeast 447 514 41,000  Level Kansas City Center
Thu 04:11:28 PM 38.4086 -90.2997 55° Northeast 449 517 41,000  Level Kansas City Center
Thu 04:12:30 PM 38.4950 -90.1397 55° Northeast 466 536 41,000  Level Kansas City Center
Thu 04:13:32 PM 38.5683 -90.0067 55° Northeast 466 536 41,000  Level Kansas City Center
Thu 04:14:34 PM 38.6400 -89.8728 56° Northeast 465 535 41,000  Level Kansas City Center
Thu 04:15:36 PM 38.7147 -89.7347 55° Northeast 478 550 41,000  Level Kansas City Center
Thu 04:16:38 PM 38.8006 -89.5744 55° Northeast 468 539 41,000  Level Kansas City Center
Thu 04:17:41 PM 38.8736 -89.4367 56° Northeast 467 537 41,000  Level Kansas City Center
Thu 04:18:43 PM 38.9514 -89.2878 56° Northeast 467 537 41,000  Level Kansas City Center
Thu 04:19:45 PM 39.0225 -89.1503 56° Northeast 463 533 41,000  Level Kansas City Center
Thu 04:20:47 PM 39.1011 -89.0031 55° Northeast 463 533 41,000  Level Kansas City Center
Thu 04:21:49 PM 39.1633 -88.8850 56° Northeast 465 535 41,000  Level Kansas City Center
Thu 04:22:51 PM 39.2356 -88.7464 56° Northeast 465 535 41,000  Level Kansas City Center
Thu 04:23:53 PM 39.3214 -88.5811 56° Northeast 465 535 41,000  Level Kansas City Center
Thu 04:24:55 PM 39.3858 -88.4542 57° Northeast 464 534 41,000  Level Kansas City Center
Thu 04:25:57 PM 39.4617 -88.2814 60° Northeast 464 534 41,000  Level Kansas City Center
Thu 04:26:59 PM 39.5147 -88.1297 66° East 462 532 41,000 -339 Level Kansas City Center
Thu 04:28:01 PM 39.5700 -87.9761 65° Northeast 465 535 40,300 -1,243 Descending Kansas City Center
Thu 04:28:50 PM 39.6106 -87.8644 65° Northeast 460 529 38,700 -1,909 Descending Indianapolis Center
Thu 04:29:51 PM 39.6667 -87.7150 64° Northeast 460 529 36,800 -1,659 Descending Indianapolis Center
Thu 04:30:53 PM 39.7208 -87.5650 65° Northeast 460 529 35,300 -968 Descending Indianapolis Center
Thu 04:31:55 PM 39.7792 -87.4128 63° Northeast 471 542 34,800 -823 Descending Indianapolis Center
Thu 04:32:57 PM 39.8536 -87.2322 62° Northeast 472 543 33,600 -871 Descending Indianapolis Center
Thu 04:33:59 PM 39.9347 -87.0944 52° Northeast 477 549 33,000 -290 Descending Indianapolis Center
Thu 04:35:01 PM 40.0147 -86.9542 53° Northeast 481 554 33,000  Level Indianapolis Center
Thu 04:36:03 PM 40.0950 -86.8119 54° Northeast 484 557 33,000  Level Indianapolis Center
Thu 04:37:05 PM 40.1744 -86.6683 54° Northeast 485 558 33,000  Level Indianapolis Center
Thu 04:38:07 PM 40.2550 -86.5239 54° Northeast 489 563 33,000 -96 Level Indianapolis Center
Thu 04:39:10 PM 40.3344 -86.3794 54° Northeast 487 560 32,800 -672 Descending Indianapolis Center
Thu 04:40:12 PM 40.4289 -86.2083 54° Northeast 482 555 31,600 -1,065 Descending Indianapolis Center
Thu 04:41:14 PM 40.5089 -86.0625 54° Northeast 490 564 30,600 -1,548 Descending Indianapolis Center
Thu 04:42:16 PM 40.5858 -85.9194 55° Northeast 482 555 28,400 -2,274 Descending Indianapolis Center
Thu 04:43:18 PM 40.6592 -85.7850 54° Northeast 457 526 25,900 -2,177 Descending Indianapolis Center
Thu 04:44:20 PM 40.7331 -85.6481 55° Northeast 458 527 23,900 -2,177 Descending Indianapolis Center
Thu 04:45:22 PM 40.8053 -85.5144 54° Northeast 451 519 21,400 -1,887 Descending Indianapolis Center
Thu 04:46:24 PM 40.8753 -85.3419 62° Northeast 453 521 20,000 -1,161 Descending Indianapolis Center
Thu 04:47:26 PM 40.9250 -85.1942 66° East 445 512 19,000 -968 Descending Indianapolis Center
Thu 04:48:28 PM 40.9750 -85.0508 65° Northeast 433 498 18,000 -968 Descending Indianapolis Center
Thu 04:49:30 PM 41.0250 -84.9047 66° East 430 495 17,000 -484 Descending Indianapolis Center
Thu 04:50:32 PM 41.0761 -84.7586 65° Northeast 433 498 17,000  Level Indianapolis Center
Thu 04:51:33 PM 41.1306 -84.5972 66° East 432 497 17,000  Level Cleveland Center
Thu 04:52:33 PM 41.1792 -84.4569 65° Northeast 432 497 17,000  Level Cleveland Center

Login

Don't have an account? Register now (free) for customized features, flight alerts, and more!